Time;durP1;ratioP1;P1;durP2;ratioP2;P2;SDS_P1;SDS_P2;PMS_P1;PMS_P2;Temp;Humidity;BMP_temperature;BMP_pressure;BME280_temperature;BME280_humidity;BME280_pressure;Samples;Min_cycle;Max_cycle;Signal;HPM_P1;HPM_P2
2023/02/28 00:09:59;;;;;;;24.75;11.77;;;;;;;-0.18;61.03;101569.59;30738381;28;96700;-76
2023/02/28 00:25:00;;;;;;;23.77;11.25;;;;;;;-0.17;60.73;101569.50;30736301;28;96671;-76
2023/02/28 00:40:01;;;;;;;18.60;9.40;;;;;;;-0.20;60.53;101558.34;30733818;28;96692;-76
2023/02/28 00:55:01;;;;;;;18.65;9.15;;;;;;;-0.27;60.81;101555.13;30733392;28;97116;-76
2023/02/28 01:10:02;;;;;;;17.00;8.73;;;;;;;-0.36;60.27;101560.75;30733042;28;96755;-77
2023/02/28 01:25:02;;;;;;;18.70;9.20;;;;;;;-0.50;60.52;101544.81;30731580;28;96660;-75
2023/02/28 01:40:03;;;;;;;22.08;10.25;;;;;;;-0.78;60.43;101546.81;30729506;28;98477;-75
2023/02/28 01:55:06;;;;;;;18.82;8.82;;;;;;;-0.79;61.61;101542.50;30749938;28;97965;-75
2023/02/28 02:10:17;;;;;;;16.23;8.95;;;;;;;-0.78;61.65;101543.34;30749152;28;97664;-75
2023/02/28 02:25:26;;;;;;;15.40;9.30;;;;;;;-0.79;61.76;101542.50;30747776;28;97357;-75
2023/02/28 02:40:34;;;;;;;22.58;9.75;;;;;;;-0.83;61.87;101535.69;30746585;28;97085;-75
2023/02/28 02:55:40;;;;;;;17.52;9.50;;;;;;;-0.79;62.15;101534.63;30744374;28;96780;-76
2023/02/28 03:10:46;;;;;;;21.90;10.48;;;;;;;-0.92;62.54;101539.50;30743797;28;96745;-75
2023/02/28 03:26:11;;;;;;;26.45;10.68;;;;;;;-0.83;62.48;101545.28;30742017;28;97100;-75
2023/02/28 03:41:20;;;;;;;15.35;9.45;;;;;;;-0.94;62.63;101550.97;30740148;28;96589;-75
2023/02/28 03:56:48;;;;;;;19.30;10.55;;;;;;;-0.90;62.30;101557.78;30738131;28;96717;-75
2023/02/28 04:11:52;;;;;;;18.00;10.05;;;;;;;-0.89;62.82;101567.31;30735317;28;96709;-75
2023/02/28 04:26:55;;;;;;;23.03;9.10;;;;;;;-0.91;62.30;101575.22;30734550;28;96924;-75
2023/02/28 04:41:55;;;;;;;22.63;9.25;;;;;;;-0.97;62.92;101578.13;30731243;28;97827;-75
2023/02/28 04:56:57;;;;;;;20.38;9.93;;;;;;;-1.02;62.68;101585.28;30732404;28;96636;-75
2023/02/28 05:11:57;;;;;;;19.63;10.15;;;;;;;-1.06;63.24;101579.31;30729654;28;97274;-75
2023/02/28 05:27:03;;;;;;;18.10;9.60;;;;;;;-0.98;62.58;101593.88;30745325;28;97285;-75
2023/02/28 05:42:03;;;;;;;18.83;9.93;;;;;;;-0.97;62.63;101608.63;30748596;28;96742;-76
2023/02/28 05:57:04;;;;;;;18.40;10.98;;;;;;;-0.95;62.26;101619.91;30719496;28;97202;-73
2023/02/28 06:12:06;;;;;;;20.45;9.32;;;;;;;-0.76;62.79;101639.19;30683628;28;97182;-75
2023/02/28 06:27:07;;;;;;;19.30;10.10;;;;;;;-0.50;62.32;101644.28;30731037;28;96736;-73
2023/02/28 06:42:07;;;;;;;26.90;10.48;;;;;;;0.26;62.13;101653.28;30663373;28;97347;-75
2023/02/28 06:57:08;;;;;;;15.77;8.25;;;;;;;0.97;60.83;101662.31;30667338;28;97481;-75
2023/02/28 07:12:08;;;;;;;15.05;8.98;;;;;;;1.98;59.14;101666.16;30670787;28;97671;-75
2023/02/28 07:27:09;;;;;;;17.27;10.63;;;;;;;2.94;56.78;101680.41;30618340;28;97288;-75
2023/02/28 07:42:11;;;;;;;12.02;7.30;;;;;;;4.33;54.54;101668.94;30613367;28;96758;-72
2023/02/28 07:57:12;;;;;;;15.20;9.38;;;;;;;5.19;51.75;101678.56;30609302;28;97360;-74
2023/02/28 08:12:12;;;;;;;18.25;7.45;;;;;;;6.64;49.36;101679.47;30625312;28;97033;-74
2023/02/28 08:27:13;;;;;;;21.67;8.85;;;;;;;7.49;44.46;101661.94;30630880;28;97584;-76
2023/02/28 08:42:13;;;;;;;10.23;6.22;;;;;;;8.94;42.23;101666.78;30671129;28;97498;-75
2023/02/28 08:57:14;;;;;;;11.60;5.38;;;;;;;11.24;37.64;101673.94;30654013;28;97879;-71
2023/02/28 09:12:14;;;;;;;9.82;3.85;;;;;;;21.24;25.56;101670.88;30658639;28;96736;-72
2023/02/28 09:27:14;;;;;;;6.78;4.22;;;;;;;27.66;17.22;101664.84;30717086;28;97212;-72
2023/02/28 09:42:20;;;;;;;;;;;;;;;31.36;13.38;101649.84;30673417;28;98396;-69
2023/02/28 09:57:31;;;;;;;6.87;4.33;;;;;;;33.00;11.97;101647.69;30597307;28;97172;-71
2023/02/28 10:12:33;;;;;;;8.27;5.43;;;;;;;31.89;11.33;101652.28;30633581;28;98683;-71
2023/02/28 10:27:33;;;;;;;8.33;4.60;;;;;;;29.49;12.94;101651.22;30733044;28;96848;-75
2023/02/28 10:42:38;;;;;;;8.70;5.13;;;;;;;32.93;10.39;101646.34;30697093;28;96677;-72
2023/02/28 10:57:39;;;;;;;7.93;5.10;;;;;;;38.17;9.02;101629.09;30695613;28;97512;-70
2023/02/28 11:12:42;;;;;;;8.30;5.15;;;;;;;38.33;7.75;101616.41;30690574;28;96733;-71
2023/02/28 11:27:47;;;;;;;13.63;6.87;;;;;;;38.95;8.19;101603.31;30662624;28;98571;-68
2023/02/28 11:43:06;;;;;;;7.30;5.50;;;;;;;40.02;7.13;101595.06;30653553;28;96916;-70
2023/02/28 11:58:17;;;;;;;8.23;5.47;;;;;;;39.41;7.06;101589.75;30675551;28;97371;-68
2023/02/28 12:13:45;;;;;;;9.30;5.27;;;;;;;39.33;6.73;101569.16;30732687;28;96707;-68
2023/02/28 12:28:58;;;;;;;8.93;6.40;;;;;;;38.56;7.48;101547.47;30679449;28;97479;-70
2023/02/28 12:44:05;;;;;;;;;;;;;;;36.04;8.03;101534.75;30656299;28;96985;-72
2023/02/28 12:59:15;;;;;;;9.13;7.03;;;;;;;35.31;8.55;101521.50;30606090;28;99682;-70
2023/02/28 13:14:33;;;;;;;8.93;6.80;;;;;;;33.66;9.30;101517.59;30607043;28;97083;-70
2023/02/28 13:29:42;;;;;;;13.87;7.67;;;;;;;33.66;8.93;101520.34;30606818;28;97612;-69
2023/02/28 13:45:05;;;;;;;13.13;7.90;;;;;;;29.51;11.00;101515.38;30617541;28;96753;-70
2023/02/28 14:00:05;;;;;;;11.23;7.73;;;;;;;29.61;11.58;101497.28;30633611;28;97645;-67
2023/02/28 14:15:35;;;;;;;12.55;9.50;;;;;;;28.68;12.18;101486.47;30740261;28;97281;-67
2023/02/28 14:31:27;;;;;;;15.37;9.63;;;;;;;27.19;12.53;101479.16;30740288;28;96737;-70
2023/02/28 14:46:39;;;;;;;19.77;10.70;;;;;;;27.75;12.82;101470.06;30734727;28;97549;-70
2023/02/28 15:01:40;;;;;;;14.40;10.03;;;;;;;26.22;13.18;101465.47;30741365;28;98357;-72
2023/02/28 15:16:44;;;;;;;13.13;9.25;;;;;;;22.72;15.50;101467.06;30738908;28;97267;-69
2023/02/28 15:31:48;;;;;;;15.00;8.83;;;;;;;20.49;16.78;101459.66;30738432;28;96768;-71
2023/02/28 15:47:14;;;;;;;13.27;8.37;;;;;;;16.58;19.66;101459.53;30733123;28;96763;-69
2023/02/28 16:02:20;;;;;;;14.47;8.67;;;;;;;12.72;23.50;101450.81;30710139;28;97010;-72
2023/02/28 16:17:31;;;;;;;13.17;7.10;;;;;;;8.45;28.26;101459.88;30660884;28;98190;-72
2023/02/28 16:32:34;;;;;;;20.97;7.90;;;;;;;5.72;32.25;101478.53;30679946;28;97159;-72
2023/02/28 16:47:34;;;;;;;15.93;7.73;;;;;;;4.07;35.64;101484.97;30720893;28;97419;-72
2023/02/28 17:02:36;;;;;;;16.73;8.93;;;;;;;2.80;38.13;101501.34;30670170;28;97396;-72
2023/02/28 17:17:36;;;;;;;27.20;14.15;;;;;;;2.03;39.91;101516.94;30607311;28;96863;-74
2023/02/28 17:32:39;;;;;;;27.83;12.80;;;;;;;1.33;41.53;101515.28;30703147;28;96791;-73
2023/02/28 17:47:41;;;;;;;22.95;12.50;;;;;;;0.88;43.19;101513.22;31162017;28;20113;-71
2023/02/28 18:02:42;;;;;;;31.02;14.02;;;;;;;0.48;44.36;101521.22;30977006;28;96658;-71
2023/02/28 18:17:43;;;;;;;27.52;14.55;;;;;;;0.21;45.41;101533.84;30730997;28;97220;-74
2023/02/28 18:32:43;;;;;;;24.75;14.25;;;;;;;-0.09;46.54;101535.13;30734761;28;96700;-71
2023/02/28 18:47:43;;;;;;;30.40;13.98;;;;;;;-0.36;47.49;101538.03;30731447;28;96808;-71
2023/02/28 19:02:44;;;;;;;32.95;14.75;;;;;;;-0.71;48.69;101532.56;30680325;28;96755;-72
2023/02/28 19:17:45;;;;;;;28.55;15.02;;;;;;;-0.94;49.50;101528.28;31202337;28;20509;-72
2023/02/28 19:32:46;;;;;;;34.85;16.77;;;;;;;-1.19;50.40;101549.31;31265873;28;20249;-71
2023/02/28 19:47:48;;;;;;;34.53;17.15;;;;;;;-1.39;50.66;101540.50;31259960;28;20049;-72
2023/02/28 20:02:49;;;;;;;28.98;16.42;;;;;;;-1.56;52.16;101549.03;30754331;28;97151;-71
2023/02/28 20:17:49;;;;;;;34.60;16.92;;;;;;;-1.75;52.84;101545.38;30729694;28;97076;-70
2023/02/28 20:32:49;;;;;;;30.08;16.80;;;;;;;-1.85;53.44;101552.72;30724886;28;96792;-70
2023/02/28 20:47:50;;;;;;;28.42;15.20;;;;;;;-1.95;53.24;101548.75;30719596;28;97200;-70
2023/02/28 21:02:50;;;;;;;46.97;22.55;;;;;;;-1.92;54.90;101548.63;30707287;28;97432;-68
2023/02/28 21:17:51;;;;;;;36.15;16.65;;;;;;;-2.12;55.09;101555.44;30730308;28;96771;-73
2023/02/28 21:32:51;;;;;;;32.95;16.27;;;;;;;-2.36;55.52;101540.63;30698746;28;96740;-71
2023/02/28 21:47:52;;;;;;;42.08;17.83;;;;;;;-2.46;55.83;101538.34;30637882;28;97368;-77
2023/02/28 22:02:52;;;;;;;42.03;23.33;;;;;;;-2.56;56.99;101544.78;30709851;28;97192;-72
2023/02/28 22:17:52;;;;;;;36.95;16.90;;;;;;;-2.69;56.99;101544.34;30737809;28;97478;-78
2023/02/28 22:32:53;;;;;;;31.23;18.33;;;;;;;-2.87;57.81;101548.44;30744240;28;97028;-77
2023/02/28 22:47:53;;;;;;;36.38;19.83;;;;;;;-2.96;58.72;101577.41;30742600;28;97092;-77
2023/02/28 23:02:53;;;;;;;46.78;18.38;;;;;;;-3.07;58.90;101581.19;30645292;28;97498;-77
2023/02/28 23:17:54;;;;;;;36.03;18.83;;;;;;;-3.32;59.47;101577.63;30739631;28;97625;-75
2023/02/28 23:32:54;;;;;;;35.55;20.08;;;;;;;-3.40;60.23;101559.66;30856754;28;96870;-75
2023/02/28 23:47:55;;;;;;;39.10;19.35;;;;;;;-3.53;60.54;101576.53;31165692;28;20105;-76
